Time;durP1;ratioP1;P1;durP2;ratioP2;P2;SDS_P1;SDS_P2;PMS_P1;PMS_P2;Temp;Humidity;BMP_temperature;BMP_pressure;BME280_temperature;BME280_humidity;BME280_pressure;Samples;Min_cycle;Max_cycle;Signal;HPM_P1;HPM_P2
2023/03/18 00:01:45;;;;;;;71.95;12.95;;;14.30;81.80;;;;;;5047049;28;20067;-55
2023/03/18 00:04:11;;;;;;;73.03;12.93;;;14.30;82.00;;;;;;5064882;28;20469;-56
2023/03/18 00:06:37;;;;;;;50.67;11.82;;;14.30;82.00;;;;;;5063535;28;20063;-56
2023/03/18 00:09:03;;;;;;;53.45;12.48;;;14.20;81.90;;;;;;5064825;28;20021;-56
2023/03/18 00:11:29;;;;;;;57.45;10.32;;;14.20;81.90;;;;;;5063446;28;20457;-55
2023/03/18 00:13:55;;;;;;;60.00;11.55;;;14.20;81.80;;;;;;5030405;28;20029;-55
2023/03/18 00:16:20;;;;;;;52.63;10.93;;;14.20;81.90;;;;;;5063326;28;20040;-56
2023/03/18 00:18:46;;;;;;;50.35;10.95;;;14.20;82.00;;;;;;5046678;28;20067;-55
2023/03/18 00:21:12;;;;;;;36.15;9.77;;;14.10;82.00;;;;;;5063447;28;20033;-55
2023/03/18 00:23:37;;;;;;;59.13;11.32;;;14.10;82.00;;;;;;5064783;28;20029;-55
2023/03/18 00:26:03;;;;;;;48.17;10.02;;;14.10;82.10;;;;;;5063134;28;20033;-55
2023/03/18 00:28:30;;;;;;;62.88;10.77;;;14.10;82.20;;;;;;5064700;28;20037;-55
2023/03/18 00:31:01;;;;;;;45.42;10.73;;;14.10;82.30;;;;;;5063120;28;20037;-56
2023/03/18 00:33:27;;;;;;;48.17;10.27;;;14.00;82.30;;;;;;5048814;28;20156;-55
2023/03/18 00:35:53;;;;;;;56.17;11.15;;;14.00;82.30;;;;;;5050789;28;20135;-55
2023/03/18 00:38:21;;;;;;;47.92;10.30;;;14.00;82.40;;;;;;5068672;28;20025;-55
2023/03/18 00:41:00;;;;;;;50.83;10.18;;;14.00;82.40;;;;;;5068716;28;20025;-55
2023/03/18 00:43:28;;;;;;;41.90;10.32;;;14.00;82.40;;;;;;5067523;28;20123;-55
2023/03/18 00:45:54;;;;;;;52.25;11.05;;;14.00;82.50;;;;;;5068642;28;20048;-55
2023/03/18 00:48:20;;;;;;;43.45;9.50;;;13.90;82.50;;;;;;5050717;28;20025;-55
2023/03/18 00:50:45;;;;;;;50.45;10.93;;;13.90;82.60;;;;;;5067065;28;20107;-55
2023/03/18 00:53:11;;;;;;;37.92;10.00;;;13.90;82.60;;;;;;5066870;28;20093;-55
2023/03/18 00:55:38;;;;;;;48.80;9.68;;;13.90;82.70;;;;;;5068355;28;20060;-55
2023/03/18 00:58:03;;;;;;;49.33;10.10;;;13.90;82.70;;;;;;5068458;28;20096;-55
2023/03/18 01:00:29;;;;;;;39.95;10.15;;;13.80;82.70;;;;;;5066914;28;20040;-55
2023/03/18 01:02:55;;;;;;;46.63;9.02;;;13.80;82.90;;;;;;5066968;28;20155;-55
2023/03/18 01:05:20;;;;;;;36.55;9.50;;;13.80;82.90;;;;;;5066795;28;20043;-55
2023/03/18 01:07:46;;;;;;;43.20;10.00;;;13.80;83.00;;;;;;5066983;28;20496;-55
2023/03/18 01:10:13;;;;;;;54.25;10.23;;;13.80;82.90;;;;;;5050085;28;20044;-55
2023/03/18 01:12:39;;;;;;;40.22;10.07;;;13.70;82.90;;;;;;5066745;28;20080;-55
2023/03/18 01:15:07;;;;;;;32.25;8.50;;;13.70;82.90;;;;;;5067931;28;20033;-56
2023/03/18 01:17:32;;;;;;;37.38;9.18;;;13.70;82.90;;;;;;5066784;28;20021;-55
2023/03/18 01:19:59;;;;;;;37.42;8.88;;;13.70;82.90;;;;;;5066530;28;20035;-56
2023/03/18 01:22:25;;;;;;;35.05;8.50;;;13.70;82.90;;;;;;5066662;28;20102;-55
2023/03/18 01:24:50;;;;;;;36.40;8.50;;;13.70;82.90;;;;;;5067695;28;20124;-55
2023/03/18 01:27:16;;;;;;;34.92;8.52;;;13.60;82.90;;;;;;5066462;28;20085;-55
2023/03/18 01:30:16;;;;;;;34.30;8.63;;;13.60;83.00;;;;;;5066412;28;20052;-56
2023/03/18 01:32:42;;;;;;;33.83;8.32;;;13.60;83.10;;;;;;5067588;28;20059;-55
2023/03/18 01:35:08;;;;;;;36.55;8.63;;;13.60;83.20;;;;;;5066356;28;20068;-55
2023/03/18 01:40:57;;;;;;;33.63;8.88;;;13.60;83.20;;;;;;5067771;28;20041;-55
2023/03/18 02:17:11;;;;;;;29.55;8.43;;;13.20;83.80;;;;;;5066409;28;20032;-55
2023/03/18 02:19:53;;;;;;;33.20;7.97;;;13.20;83.80;;;;;;5065073;28;20084;-55
2023/03/18 02:22:32;;;;;;;30.85;8.40;;;13.20;84.00;;;;;;5065251;28;20044;-55
2023/03/18 02:25:23;;;;;;;26.92;8.55;;;13.20;84.10;;;;;;5065190;28;20083;-55
2023/03/18 02:27:52;;;;;;;31.77;8.65;;;13.20;84.00;;;;;;5048630;28;20044;-55
2023/03/18 02:30:21;;;;;;;28.35;8.35;;;13.10;84.60;;;;;;5065175;28;20052;-55
2023/03/18 02:32:47;;;;;;;25.25;8.30;;;13.10;84.10;;;;;;5065320;28;20092;-55
2023/03/18 02:35:12;;;;;;;28.60;8.60;;;13.10;84.20;;;;;;5065230;28;20036;-55
2023/03/18 02:37:38;;;;;;;33.15;9.05;;;13.10;84.20;;;;;;5066655;28;20052;-55
2023/03/18 02:40:18;;;;;;;34.38;9.43;;;13.10;84.20;;;;;;5065056;28;20017;-55
2023/03/18 02:42:44;;;;;;;31.52;8.18;;;13.00;84.30;;;;;;5064983;28;20040;-55
2023/03/18 02:45:18;;;;;;;32.45;8.80;;;13.00;84.40;;;;;;5065107;28;20036;-55
2023/03/18 02:47:43;;;;;;;26.23;8.35;;;13.00;84.40;;;;;;5065237;28;20041;-55
2023/03/18 02:50:09;;;;;;;23.73;8.32;;;13.00;84.40;;;;;;5064863;28;20033;-55
2023/03/18 02:52:35;;;;;;;33.97;8.13;;;13.00;84.40;;;;;;5047976;28;20047;-56
2023/03/18 02:55:00;;;;;;;26.38;8.15;;;13.00;84.40;;;;;;5065869;28;20374;-55
2023/03/18 02:57:26;;;;;;;24.63;8.02;;;13.00;84.50;;;;;;5064604;28;20081;-55
2023/03/18 02:59:51;;;;;;;24.88;8.15;;;13.00;84.70;;;;;;5066003;28;20151;-55
2023/03/18 03:02:17;;;;;;;25.40;7.32;;;13.00;84.70;;;;;;5064989;28;20486;-55
2023/03/18 03:04:43;;;;;;;26.67;7.63;;;12.90;84.80;;;;;;5064613;28;20101;-55
2023/03/18 03:07:08;;;;;;;20.45;7.35;;;13.00;85.00;;;;;;5066075;28;20022;-55
2023/03/18 03:09:34;;;;;;;20.48;7.07;;;12.90;85.00;;;;;;5065810;28;20559;-55
2023/03/18 03:11:59;;;;;;;19.75;6.93;;;12.90;85.20;;;;;;5065755;28;20032;-55
2023/03/18 03:14:25;;;;;;;19.17;7.25;;;12.90;85.30;;;;;;5065624;28;20086;-56
2023/03/18 03:16:50;;;;;;;21.98;7.70;;;12.90;85.40;;;;;;5064316;28;20071;-56
2023/03/18 03:19:16;;;;;;;21.75;6.65;;;12.90;85.50;;;;;;5064200;28;20077;-55
2023/03/18 03:21:42;;;;;;;21.52;7.10;;;12.90;86.30;;;;;;5063815;28;20096;-55
2023/03/18 03:24:08;;;;;;;23.90;6.82;;;12.90;85.80;;;;;;5047589;28;20095;-55
2023/03/18 03:26:34;;;;;;;19.73;7.63;;;12.90;85.80;;;;;;5064104;28;20044;-55
2023/03/18 03:29:00;;;;;;;24.75;6.90;;;12.90;85.90;;;;;;5064447;28;20146;-55
2023/03/18 03:31:26;;;;;;;18.20;6.75;;;12.80;85.90;;;;;;5047618;28;20033;-55
2023/03/18 03:33:52;;;;;;;22.13;6.90;;;12.80;85.90;;;;;;5063863;28;20033;-55
2023/03/18 03:36:17;;;;;;;20.05;8.52;;;12.80;86.00;;;;;;5064081;28;20107;-55
2023/03/18 03:38:43;;;;;;;20.88;7.38;;;12.80;86.00;;;;;;5064039;28;20028;-55
2023/03/18 03:41:10;;;;;;;19.67;7.28;;;12.80;86.00;;;;;;5064008;28;20140;-55
2023/03/18 03:43:37;;;;;;;19.30;7.47;;;12.80;86.00;;;;;;5065372;28;20339;-55
2023/03/18 03:46:03;;;;;;;20.42;7.65;;;12.70;86.00;;;;;;5064026;28;20043;-55
2023/03/18 03:48:29;;;;;;;17.85;8.10;;;12.80;86.00;;;;;;5065105;28;20057;-56
2023/03/18 03:50:56;;;;;;;22.85;8.13;;;12.80;86.10;;;;;;5063780;28;20033;-56
2023/03/18 03:53:21;;;;;;;16.73;7.38;;;12.70;86.10;;;;;;5063883;28;20070;-55
2023/03/18 03:55:47;;;;;;;20.48;8.00;;;12.70;86.10;;;;;;5065606;28;20368;-55
2023/03/18 03:58:13;;;;;;;16.48;7.65;;;12.70;86.00;;;;;;5064966;28;20102;-55
2023/03/18 04:00:38;;;;;;;24.02;8.07;;;12.70;86.10;;;;;;5063437;28;20036;-56
2023/03/18 04:03:04;;;;;;;20.48;7.07;;;12.70;86.10;;;;;;5063970;28;20078;-55
2023/03/18 04:05:30;;;;;;;16.33;7.25;;;12.70;86.00;;;;;;5064128;28;20028;-56
2023/03/18 04:07:58;;;;;;;16.92;7.32;;;12.60;85.90;;;;;;5063172;28;20084;-55
2023/03/18 04:10:25;;;;;;;16.65;7.75;;;12.60;86.60;;;;;;5063603;28;20031;-55
2023/03/18 04:12:50;;;;;;;17.38;7.57;;;12.60;86.70;;;;;;5064909;28;20060;-55
2023/03/18 04:15:26;;;;;;;17.98;7.80;;;12.60;86.00;;;;;;5064937;28;20051;-56
2023/03/18 04:17:52;;;;;;;;;;;12.60;86.00;;;;;;5065339;28;20089;-56
2023/03/18 04:20:17;;;;;;;14.20;7.07;;;12.60;86.00;;;;;;5065368;28;20022;-56
2023/03/18 04:22:43;;;;;;;18.02;8.25;;;12.60;86.00;;;;;;5063451;28;20029;-55
2023/03/18 04:25:10;;;;;;;22.58;8.55;;;12.50;86.10;;;;;;5063218;28;20098;-55
2023/03/18 04:27:36;;;;;;;18.73;8.38;;;12.50;86.20;;;;;;5063397;28;20135;-55
2023/03/18 04:30:02;;;;;;;35.67;11.70;;;12.50;86.20;;;;;;5064560;28;20036;-55
2023/03/18 04:32:28;;;;;;;31.00;10.80;;;12.50;86.20;;;;;;5046724;28;20084;-55
2023/03/18 04:34:53;;;;;;;33.00;11.05;;;12.40;86.80;;;;;;5063259;28;20052;-55
2023/03/18 04:37:19;;;;;;;33.60;9.95;;;12.40;86.20;;;;;;5064740;28;20372;-55
2023/03/18 04:39:46;;;;;;;29.55;11.05;;;12.40;86.30;;;;;;5064401;28;20040;-55
2023/03/18 04:42:12;;;;;;;37.13;10.88;;;12.40;86.30;;;;;;5063187;28;20113;-55
2023/03/18 04:44:38;;;;;;;44.05;11.60;;;12.40;86.30;;;;;;5064601;28;20173;-55
2023/03/18 04:47:03;;;;;;;51.80;12.02;;;12.30;86.30;;;;;;5063034;28;20029;-55
2023/03/18 04:49:29;;;;;;;39.47;10.95;;;12.30;86.40;;;;;;5063153;28;20135;-55
2023/03/18 04:51:55;;;;;;;42.60;11.70;;;12.30;86.40;;;;;;5062940;28;20106;-55
2023/03/18 04:54:20;;;;;;;45.70;11.40;;;12.30;86.30;;;;;;5062952;28;20036;-55
2023/03/18 04:56:46;;;;;;;36.03;11.02;;;12.30;86.30;;;;;;5064363;28;20029;-56
2023/03/18 04:59:11;;;;;;;33.33;10.00;;;12.30;86.30;;;;;;5062868;28;20362;-55
2023/03/18 05:01:37;;;;;;;51.65;11.32;;;12.30;86.30;;;;;;5062824;28;20033;-56
2023/03/18 05:04:02;;;;;;;33.13;10.32;;;12.20;86.30;;;;;;5063122;28;20029;-55
2023/03/18 05:06:29;;;;;;;36.35;11.10;;;12.20;86.30;;;;;;5062977;28;20431;-56
2023/03/18 05:08:55;;;;;;;39.58;10.77;;;12.20;86.90;;;;;;5063079;28;20025;-56
2023/03/18 05:11:21;;;;;;;36.22;10.73;;;12.20;86.30;;;;;;5062931;28;20098;-55
2023/03/18 05:13:47;;;;;;;35.80;10.15;;;12.20;86.30;;;;;;5062960;28;20021;-55
2023/03/18 05:16:12;;;;;;;29.98;10.52;;;12.20;86.40;;;;;;5062751;28;20055;-55
2023/03/18 05:18:39;;;;;;;38.58;11.05;;;12.10;86.40;;;;;;5063398;28;20029;-55
2023/03/18 05:21:06;;;;;;;43.45;10.35;;;12.10;86.40;;;;;;5066380;28;20033;-55
2023/03/18 05:23:32;;;;;;;32.90;10.27;;;12.10;86.40;;;;;;5066623;28;20052;-55
2023/03/18 05:25:58;;;;;;;35.40;9.95;;;12.10;86.40;;;;;;5066362;28;20497;-55
2023/03/18 05:28:23;;;;;;;26.20;9.82;;;12.10;86.40;;;;;;5066661;28;20055;-55
2023/03/18 05:30:49;;;;;;;33.38;9.93;;;12.10;86.40;;;;;;5067895;28;20039;-55
2023/03/18 05:33:14;;;;;;;40.33;10.48;;;12.10;86.30;;;;;;5067777;28;20139;-55
2023/03/18 05:35:40;;;;;;;36.75;9.05;;;12.00;86.20;;;;;;5049765;28;20060;-55
2023/03/18 05:38:06;;;;;;;34.95;9.60;;;12.00;86.30;;;;;;5067779;28;20029;-55
2023/03/18 05:40:32;;;;;;;20.98;8.13;;;12.00;86.50;;;;;;5066256;28;20017;-55
2023/03/18 05:42:57;;;;;;;29.25;9.00;;;12.00;86.50;;;;;;5067386;28;20028;-56
2023/03/18 05:45:23;;;;;;;24.88;8.55;;;12.00;86.50;;;;;;5066135;28;20044;-55
2023/03/18 05:47:49;;;;;;;25.15;8.85;;;12.00;86.50;;;;;;5066195;28;20064;-55
2023/03/18 05:50:27;;;;;;;25.25;8.18;;;12.00;86.60;;;;;;5067411;28;20032;-55
2023/03/18 05:52:53;;;;;;;25.23;8.38;;;12.00;86.80;;;;;;5066211;28;20032;-55
2023/03/18 05:55:18;;;;;;;24.00;8.52;;;11.90;86.70;;;;;;5065867;28;20025;-55
2023/03/18 05:57:45;;;;;;;26.90;8.10;;;11.90;86.90;;;;;;5067211;28;20021;-55
2023/03/18 06:00:12;;;;;;;18.85;7.45;;;11.80;86.80;;;;;;5065899;28;20040;-55
2023/03/18 06:02:37;;;;;;;30.38;8.13;;;11.80;86.80;;;;;;5065751;28;20021;-55
2023/03/18 06:05:03;;;;;;;23.75;7.57;;;11.80;86.80;;;;;;5065576;28;20047;-55
2023/03/18 06:07:29;;;;;;;30.60;6.88;;;11.80;86.90;;;;;;5049240;28;20025;-56
2023/03/18 06:09:54;;;;;;;21.65;7.07;;;11.80;86.90;;;;;;5066966;28;20113;-55
2023/03/18 06:12:22;;;;;;;24.65;7.85;;;11.80;87.10;;;;;;5065629;28;20081;-55
2023/03/18 06:14:48;;;;;;;23.20;7.65;;;11.80;87.10;;;;;;5067123;28;20049;-55
2023/03/18 06:17:14;;;;;;;22.10;6.57;;;11.80;87.10;;;;;;5065564;28;20177;-56
2023/03/18 06:19:39;;;;;;;27.67;7.53;;;11.70;87.00;;;;;;5065293;28;20549;-55
2023/03/18 06:22:05;;;;;;;19.17;6.85;;;11.70;87.00;;;;;;5048671;28;20027;-56
2023/03/18 06:24:31;;;;;;;26.83;6.95;;;11.80;87.00;;;;;;5065486;28;20033;-55
2023/03/18 06:26:57;;;;;;;21.58;7.28;;;11.70;87.00;;;;;;5066714;28;20385;-55
2023/03/18 06:29:22;;;;;;;20.00;6.50;;;11.70;87.00;;;;;;5066701;28;20025;-55
2023/03/18 06:31:48;;;;;;;17.80;6.68;;;11.70;87.10;;;;;;5065685;28;20025;-55
2023/03/18 06:34:14;;;;;;;17.23;7.28;;;11.70;87.10;;;;;;5066376;28;20021;-55
2023/03/18 06:36:40;;;;;;;15.52;6.00;;;11.60;87.00;;;;;;5065318;28;20025;-55
2023/03/18 06:39:05;;;;;;;17.15;6.45;;;11.70;87.00;;;;;;5065081;28;20017;-57
2023/03/18 06:41:31;;;;;;;21.77;6.55;;;11.60;87.70;;;;;;5065120;28;20056;-57
2023/03/18 06:43:57;;;;;;;13.15;6.28;;;11.70;87.00;;;;;;5065393;28;20388;-57
2023/03/18 06:46:22;;;;;;;19.63;6.78;;;11.60;87.10;;;;;;5064848;28;20397;-57
2023/03/18 06:48:48;;;;;;;21.50;6.53;;;11.60;87.10;;;;;;5064931;28;20021;-58
2023/03/18 06:51:14;;;;;;;26.35;7.18;;;11.60;87.00;;;;;;5064832;28;20120;-57
2023/03/18 06:53:40;;;;;;;20.73;6.38;;;11.60;87.00;;;;;;5066127;28;20025;-57
2023/03/18 06:56:06;;;;;;;17.67;5.95;;;11.60;86.90;;;;;;5065996;28;20080;-57
2023/03/18 06:58:32;;;;;;;16.77;6.40;;;11.60;86.90;;;;;;5048042;28;20047;-57
2023/03/18 07:00:58;;;;;;;19.48;6.68;;;11.60;86.90;;;;;;5064793;28;20107;-58
2023/03/18 07:03:24;;;;;;;18.02;6.10;;;11.60;86.90;;;;;;5064654;28;20029;-57
2023/03/18 07:05:51;;;;;;;14.02;5.82;;;11.60;86.90;;;;;;5064467;28;20053;-57
2023/03/18 07:08:16;;;;;;;18.17;6.47;;;11.50;86.80;;;;;;5064725;28;20029;-57
2023/03/18 07:10:42;;;;;;;19.25;6.05;;;11.50;86.80;;;;;;5064453;28;20392;-57
2023/03/18 07:13:08;;;;;;;10.98;6.07;;;11.50;87.00;;;;;;5064467;28;20036;-57
2023/03/18 07:15:34;;;;;;;22.48;5.93;;;11.50;86.90;;;;;;5064540;28;20093;-57
2023/03/18 07:18:01;;;;;;;15.85;5.30;;;11.50;86.90;;;;;;5064581;28;20017;-57
2023/03/18 07:20:28;;;;;;;15.07;6.00;;;11.50;87.00;;;;;;5066014;28;20025;-57
2023/03/18 07:22:54;;;;;;;16.17;5.38;;;11.50;86.90;;;;;;5064532;28;20039;-57
2023/03/18 07:25:19;;;;;;;18.05;6.10;;;11.50;86.90;;;;;;5064150;28;20037;-57
2023/03/18 07:27:45;;;;;;;14.20;6.05;;;11.50;87.50;;;;;;5064005;28;20071;-57
2023/03/18 07:30:12;;;;;;;13.60;5.40;;;11.50;87.50;;;;;;5065518;28;20044;-57
2023/03/18 07:32:38;;;;;;;17.52;5.72;;;11.50;87.00;;;;;;5064093;28;20163;-57
2023/03/18 07:35:04;;;;;;;13.02;5.30;;;11.50;87.00;;;;;;5065538;28;20037;-57
2023/03/18 07:37:30;;;;;;;14.88;5.45;;;11.40;86.90;;;;;;5064059;28;20035;-57
2023/03/18 07:39:56;;;;;;;15.07;5.95;;;11.50;87.00;;;;;;5064021;28;20113;-57
2023/03/18 07:42:22;;;;;;;16.45;5.13;;;11.40;86.90;;;;;;5065666;28;20025;-57
2023/03/18 07:44:47;;;;;;;12.95;4.93;;;11.40;86.90;;;;;;5065658;28;20033;-57
2023/03/18 07:47:15;;;;;;;11.40;5.28;;;11.40;86.90;;;;;;5064631;28;20025;-57
2023/03/18 07:49:41;;;;;;;15.75;5.72;;;11.40;86.90;;;;;;5064121;28;20040;-57
2023/03/18 07:52:07;;;;;;;12.77;5.68;;;11.40;87.00;;;;;;5063705;28;20460;-57
2023/03/18 07:54:33;;;;;;;18.08;5.38;;;11.40;87.00;;;;;;5063867;28;20132;-57
2023/03/18 07:56:59;;;;;;;18.63;5.47;;;11.40;87.70;;;;;;5063735;28;20033;-57
2023/03/18 07:59:24;;;;;;;17.85;5.22;;;11.40;87.00;;;;;;5064944;28;20087;-57
2023/03/18 08:01:50;;;;;;;10.48;4.88;;;11.40;87.00;;;;;;5063373;28;20025;-57
2023/03/18 08:04:16;;;;;;;9.18;4.90;;;11.40;87.10;;;;;;5063534;28;20017;-57
2023/03/18 08:06:42;;;;;;;9.43;4.80;;;11.40;87.10;;;;;;5063603;28;20041;-57
2023/03/18 08:09:07;;;;;;;13.77;5.10;;;11.40;87.10;;;;;;5064961;28;20055;-57
2023/03/18 08:11:33;;;;;;;13.52;4.78;;;11.30;87.00;;;;;;5063649;28;20044;-57
2023/03/18 08:13:59;;;;;;;13.20;5.30;;;11.30;87.00;;;;;;5064792;28;20082;-57
2023/03/18 08:16:25;;;;;;;11.15;4.93;;;11.40;87.00;;;;;;5064738;28;20096;-57
2023/03/18 08:18:51;;;;;;;17.10;5.45;;;11.40;87.00;;;;;;5064847;28;20029;-57
2023/03/18 08:21:17;;;;;;;11.68;5.10;;;11.40;86.90;;;;;;5063329;28;20036;-57
2023/03/18 08:23:43;;;;;;;11.90;5.10;;;11.40;86.90;;;;;;5063224;28;20029;-57
2023/03/18 08:26:09;;;;;;;11.20;4.90;;;11.40;86.90;;;;;;5063229;28;20036;-57
2023/03/18 08:28:35;;;;;;;13.02;4.65;;;11.40;87.40;;;;;;5064622;28;20025;-57
2023/03/18 08:31:00;;;;;;;13.77;4.70;;;11.40;86.70;;;;;;5063259;28;20036;-57
2023/03/18 08:33:26;;;;;;;10.95;5.15;;;11.40;86.80;;;;;;5064911;28;20029;-57
2023/03/18 08:35:52;;;;;;;11.35;5.03;;;11.40;86.70;;;;;;5063599;28;20028;-57
2023/03/18 08:38:18;;;;;;;9.80;4.68;;;11.40;86.80;;;;;;5063361;28;20047;-57
2023/03/18 08:40:45;;;;;;;9.27;4.40;;;11.40;86.90;;;;;;5064562;28;20420;-57
2023/03/18 08:43:10;;;;;;;10.52;4.88;;;11.40;86.90;;;;;;5063187;28;20029;-57
2023/03/18 08:45:36;;;;;;;14.95;4.30;;;11.40;86.90;;;;;;5062948;28;20029;-57
2023/03/18 08:48:01;;;;;;;11.48;4.18;;;11.40;86.90;;;;;;5064392;28;20029;-56
2023/03/18 08:50:28;;;;;;;7.75;4.15;;;11.40;86.90;;;;;;5064373;28;20035;-57
2023/03/18 08:52:58;;;;;;;7.80;4.05;;;11.40;86.80;;;;;;5064461;28;20033;-57
2023/03/18 08:55:36;;;;;;;8.80;4.40;;;11.40;86.80;;;;;;5066610;28;20472;-57
2023/03/18 08:58:03;;;;;;;8.13;4.22;;;11.40;86.80;;;;;;5068619;28;20128;-57
2023/03/18 09:00:29;;;;;;;9.95;4.20;;;11.40;87.40;;;;;;5068108;28;20037;-57
2023/03/18 09:02:54;;;;;;;9.30;4.05;;;11.40;87.50;;;;;;5066868;28;20182;-57
2023/03/18 09:05:20;;;;;;;8.38;4.50;;;11.40;86.90;;;;;;5068124;28;20049;-57
2023/03/18 09:07:46;;;;;;;7.68;3.80;;;11.40;86.80;;;;;;5066802;28;20045;-58
2023/03/18 09:10:13;;;;;;;9.45;4.00;;;11.40;86.70;;;;;;5066677;28;20040;-57
2023/03/18 09:12:42;;;;;;;8.82;3.92;;;11.40;86.70;;;;;;5066447;28;20376;-57
2023/03/18 09:15:11;;;;;;;11.25;4.65;;;11.40;86.70;;;;;;5066563;28;20127;-56
2023/03/18 09:17:39;;;;;;;10.32;4.25;;;11.40;86.60;;;;;;5067519;28;20021;-57
2023/03/18 09:20:06;;;;;;;18.50;4.85;;;11.50;86.70;;;;;;5065996;28;20033;-57
2023/03/18 09:22:31;;;;;;;17.67;4.80;;;11.40;86.50;;;;;;5066465;28;20166;-57
2023/03/18 09:24:57;;;;;;;19.25;4.85;;;11.50;86.50;;;;;;5068019;28;20025;-56
2023/03/18 09:27:23;;;;;;;15.65;4.68;;;11.50;86.40;;;;;;5067922;28;20021;-58
2023/03/18 09:29:48;;;;;;;71.65;10.43;;;11.60;86.30;;;;;;5066374;28;20473;-57
2023/03/18 09:32:15;;;;;;;35.40;6.88;;;11.60;86.70;;;;;;5067362;28;20071;-57
2023/03/18 09:34:40;;;;;;;54.13;7.22;;;11.70;86.80;;;;;;5066119;28;20088;-57
2023/03/18 09:37:06;;;;;;;70.70;9.73;;;11.70;86.60;;;;;;5066147;28;20028;-57
2023/03/18 09:39:32;;;;;;;59.40;9.35;;;11.70;86.70;;;;;;5065659;28;20024;-57
2023/03/18 09:42:15;;;;;;;78.15;9.18;;;11.70;87.00;;;;;;5067367;28;20048;-57
2023/03/18 09:44:41;;;;;;;66.22;9.23;;;11.80;87.10;;;;;;5067022;28;20088;-57
2023/03/18 09:47:17;;;;;;;62.72;8.25;;;11.80;87.20;;;;;;5065819;28;20028;-57
2023/03/18 09:49:46;;;;;;;60.72;9.98;;;11.80;87.00;;;;;;5065782;28;20093;-57
2023/03/18 09:52:17;;;;;;;67.30;10.75;;;11.90;87.10;;;;;;5065483;28;20036;-57
2023/03/18 09:54:55;;;;;;;83.13;11.45;;;11.90;87.30;;;;;;5048941;28;20040;-55
2023/03/18 09:57:27;;;;;;;85.15;12.80;;;11.90;87.00;;;;;;5066934;28;20036;-55
2023/03/18 10:00:23;;;;;;;80.75;12.25;;;11.90;87.30;;;;;;5049004;28;20124;-55
2023/03/18 10:03:04;;;;;;;119.30;13.38;;;12.00;87.70;;;;;;5040136;28;20176;-55
2023/03/18 10:05:32;;;;;;;109.25;13.32;;;12.00;87.80;;;;;;5043805;28;20037;-55
2023/03/18 10:08:03;;;;;;;106.68;13.68;;;12.10;87.90;;;;;;5045426;28;20025;-55
2023/03/18 10:10:39;;;;;;;110.35;12.98;;;12.10;87.80;;;;;;5045146;28;20030;-55
2023/03/18 10:13:09;;;;;;;114.10;13.82;;;12.20;87.80;;;;;;5027840;28;20029;-56
2023/03/18 10:15:50;;;;;;;113.00;13.45;;;12.20;87.80;;;;;;5045374;28;20113;-55
2023/03/18 10:18:35;;;;;;;149.68;16.70;;;12.30;87.90;;;;;;5045125;28;20100;-55
2023/03/18 10:21:22;;;;;;;115.70;15.85;;;12.30;87.90;;;;;;5043416;28;20029;-55
2023/03/18 10:24:18;;;;;;;157.00;17.73;;;12.30;87.40;;;;;;5045934;28;20085;-55
2023/03/18 10:26:56;;;;;;;157.93;17.27;;;12.40;87.60;;;;;;5044489;28;20065;-55
2023/03/18 10:29:44;;;;;;;156.02;17.52;;;12.50;87.70;;;;;;5044308;28;20105;-56
2023/03/18 10:32:36;;;;;;;159.05;17.42;;;12.50;87.60;;;;;;5044322;28;20029;-55
2023/03/18 10:35:24;;;;;;;156.10;19.15;;;12.60;87.40;;;;;;5034283;28;20056;-54
2023/03/18 10:38:28;;;;;;;176.40;18.98;;;12.60;87.30;;;;;;5030843;28;20029;-55
2023/03/18 10:40:53;;;;;;;143.65;16.60;;;12.70;87.10;;;;;;5026330;28;20045;-55
2023/03/18 10:43:23;;;;;;;166.20;17.55;;;12.70;87.00;;;;;;5027672;28;20021;-55
2023/03/18 10:45:57;;;;;;;175.60;18.35;;;12.80;86.30;;;;;;5043550;28;20118;-55
2023/03/18 10:48:26;;;;;;;128.25;17.52;;;12.80;86.60;;;;;;5043958;28;20121;-56
2023/03/18 10:50:57;;;;;;;136.80;16.55;;;12.80;86.20;;;;;;5045339;28;20085;-55
2023/03/18 10:53:26;;;;;;;165.60;20.75;;;12.80;85.90;;;;;;5044586;28;20053;-55
2023/03/18 10:56:06;;;;;;;153.85;18.38;;;12.90;86.00;;;;;;5044211;28;20143;-55
2023/03/18 10:58:32;;;;;;;125.85;16.70;;;13.00;86.40;;;;;;5043493;28;20045;-55
2023/03/18 11:00:58;;;;;;;186.10;20.08;;;13.00;84.70;;;;;;5043180;28;20075;-55
2023/03/18 11:03:25;;;;;;;211.90;21.75;;;13.00;84.50;;;;;;5043517;28;20059;-55
2023/03/18 11:05:51;;;;;;;207.90;22.23;;;13.10;84.30;;;;;;5043195;28;20029;-55
2023/03/18 11:08:28;;;;;;;160.00;19.63;;;13.20;85.00;;;;;;5042564;28;20133;-55
2023/03/18 11:10:54;;;;;;;193.80;21.85;;;13.20;84.20;;;;;;5045011;28;20113;-55
2023/03/18 11:13:20;;;;;;;168.77;22.15;;;13.30;83.20;;;;;;5026612;28;20025;-57
2023/03/18 11:15:55;;;;;;;149.68;20.08;;;13.30;84.00;;;;;;5044897;28;20037;-55
2023/03/18 11:18:22;;;;;;;210.13;22.17;;;13.40;83.60;;;;;;5026361;28;20018;-55
2023/03/18 11:20:54;;;;;;;203.73;22.50;;;13.40;83.00;;;;;;5043623;28;20042;-60
2023/03/18 11:23:55;;;;;;;225.18;23.98;;;13.40;83.30;;;;;;5043544;28;20048;-55
2023/03/18 11:26:25;;;;;;;252.27;25.67;;;13.50;84.40;;;;;;5043608;28;20045;-55
2023/03/18 11:29:21;;;;;;;206.32;21.30;;;13.50;84.00;;;;;;5043943;28;20140;-55
2023/03/18 11:31:59;;;;;;;171.57;20.50;;;13.60;82.80;;;;;;5042952;28;20049;-55
2023/03/18 11:34:26;;;;;;;200.55;20.48;;;13.70;81.30;;;;;;5025930;28;20029;-55
2023/03/18 11:37:03;;;;;;;180.75;21.40;;;13.70;81.10;;;;;;5041229;28;20029;-55
2023/03/18 11:39:36;;;;;;;181.75;19.85;;;13.80;80.60;;;;;;5042592;28;20025;-55
2023/03/18 11:42:01;;;;;;;179.48;21.42;;;13.80;79.90;;;;;;5043154;28;20056;-56
2023/03/18 11:44:31;;;;;;;192.95;21.13;;;13.90;80.20;;;;;;5042236;28;20021;-55
2023/03/18 11:47:02;;;;;;;191.07;21.67;;;13.90;79.50;;;;;;5042737;28;20021;-56
2023/03/18 11:49:27;;;;;;;186.95;21.17;;;14.00;79.50;;;;;;5042602;28;20033;-55
2023/03/18 11:52:09;;;;;;;229.38;25.50;;;14.00;79.60;;;;;;5041500;28;20048;-55
2023/03/18 11:54:49;;;;;;;210.68;23.85;;;14.00;78.30;;;;;;5042742;28;20037;-55
2023/03/18 11:57:41;;;;;;;211.45;23.60;;;14.10;78.20;;;;;;5043480;28;20046;-55
2023/03/18 12:00:10;;;;;;;194.23;23.85;;;14.20;78.50;;;;;;5041894;28;20029;-55
2023/03/18 12:02:35;;;;;;;178.73;19.98;;;14.20;78.20;;;;;;5043177;28;20029;-55
2023/03/18 12:05:27;;;;;;;188.00;22.17;;;14.30;77.40;;;;;;5044423;28;20036;-55
2023/03/18 12:08:14;;;;;;;176.35;21.73;;;14.30;77.40;;;;;;5044661;28;20040;-55
2023/03/18 12:10:47;;;;;;;197.55;19.90;;;14.40;77.20;;;;;;5043263;28;20018;-55
2023/03/18 12:13:38;;;;;;;251.75;27.38;;;14.40;77.10;;;;;;5027622;28;20033;-55
2023/03/18 12:16:19;;;;;;;223.20;26.17;;;14.50;77.40;;;;;;5042875;28;20029;-55
2023/03/18 12:19:13;;;;;;;243.18;26.73;;;14.50;77.60;;;;;;5043088;28;20045;-55
2023/03/18 12:22:07;;;;;;;172.93;23.42;;;14.60;77.80;;;;;;5043224;28;20033;-55
2023/03/18 12:25:16;;;;;;;346.75;33.60;;;14.60;77.20;;;;;;5043110;28;20107;-55
2023/03/18 12:27:57;;;;;;;224.27;27.67;;;14.60;77.20;;;;;;5005919;28;20117;-55
2023/03/18 12:30:45;;;;;;;174.32;22.50;;;14.70;77.20;;;;;;5040965;28;20101;-55
2023/03/18 12:33:35;;;;;;;161.13;21.75;;;14.70;76.20;;;;;;5012344;28;20033;-55
2023/03/18 12:36:11;;;;;;;173.57;22.33;;;14.80;76.40;;;;;;5044293;28;20091;-55
2023/03/18 12:38:55;;;;;;;177.60;21.00;;;14.80;76.60;;;;;;5043932;28;20048;-55
2023/03/18 12:41:42;;;;;;;207.73;24.45;;;14.80;76.90;;;;;;5044204;28;20482;-56
2023/03/18 12:44:20;;;;;;;294.55;31.80;;;14.90;77.30;;;;;;5044206;28;20462;-55
2023/03/18 12:47:15;;;;;;;269.10;26.70;;;14.90;77.40;;;;;;5043047;28;20106;-55
2023/03/18 12:49:55;;;;;;;254.70;28.63;;;14.90;77.90;;;;;;5042842;28;20170;-55
2023/03/18 12:52:35;;;;;;;251.40;29.25;;;15.00;77.60;;;;;;5028405;28;20042;-55
2023/03/18 12:55:22;;;;;;;198.52;24.17;;;15.10;77.10;;;;;;5027185;28;20033;-55
2023/03/18 12:58:17;;;;;;;171.70;20.02;;;15.10;76.20;;;;;;5012250;28;20021;-55
2023/03/18 13:01:05;;;;;;;186.10;21.60;;;15.10;74.50;;;;;;5025342;28;20061;-55
2023/03/18 13:03:32;;;;;;;214.50;24.10;;;15.20;75.00;;;;;;5043532;28;20033;-55
2023/03/18 13:06:27;;;;;;;164.07;18.50;;;15.20;75.50;;;;;;5026550;28;20033;-56
2023/03/18 13:09:02;;;;;;;161.57;18.65;;;15.30;74.10;;;;;;5044181;28;20034;-55
2023/03/18 13:11:52;;;;;;;156.77;18.00;;;15.40;73.60;;;;;;5042662;28;20033;-55
2023/03/18 13:14:43;;;;;;;196.23;24.13;;;15.50;72.80;;;;;;5041537;28;20490;-55
2023/03/18 13:17:13;;;;;;;197.18;24.70;;;15.50;74.20;;;;;;5042614;28;20030;-55
2023/03/18 13:19:40;;;;;;;186.35;24.08;;;15.60;75.00;;;;;;5042422;28;20029;-55
2023/03/18 13:22:22;;;;;;;223.23;23.77;;;15.60;75.50;;;;;;5059307;28;20030;-55